Time;durP1;ratioP1;P1;durP2;ratioP2;P2;SDS_P1;SDS_P2;PMS_P1;PMS_P2;Temp;Humidity;BMP_temperature;BMP_pressure;BME280_temperature;BME280_humidity;BME280_pressure;Samples;Min_cycle;Max_cycle;Signal;HPM_P1;HPM_P2
2021/03/25 00:00:33;;;;;;;21.60;8.43;;;9.60;58.40;;;;;;5041963;28;20083;-74
2021/03/25 00:03:06;;;;;;;18.13;9.23;;;9.50;58.50;;;;;;5035605;28;20071;-73
2021/03/25 00:05:33;;;;;;;16.67;9.30;;;9.40;59.30;;;;;;5040645;28;20124;-74
2021/03/25 00:08:00;;;;;;;19.42;8.82;;;9.40;58.90;;;;;;5038754;28;20534;-73
2021/03/25 00:10:32;;;;;;;22.27;9.20;;;9.30;59.10;;;;;;5044324;28;20568;-74
2021/03/25 00:12:59;;;;;;;16.13;8.60;;;9.30;59.30;;;;;;5041195;28;20049;-74
2021/03/25 00:15:26;;;;;;;19.05;8.65;;;9.40;59.20;;;;;;5042438;28;20487;-74
2021/03/25 00:17:53;;;;;;;21.60;9.50;;;9.40;59.50;;;;;;5031432;28;20163;-72
2021/03/25 00:20:21;;;;;;;22.92;8.93;;;9.30;60.10;;;;;;5038820;28;20049;-73
2021/03/25 00:22:48;;;;;;;20.65;8.43;;;9.40;59.40;;;;;;5047056;28;20491;-73
2021/03/25 00:25:17;;;;;;;15.80;8.57;;;9.40;59.60;;;;;;5041262;28;20056;-73
2021/03/25 00:27:44;;;;;;;14.57;8.38;;;9.40;59.60;;;;;;5045142;28;21417;-73
2021/03/25 00:30:13;;;;;;;14.98;8.20;;;9.40;59.60;;;;;;5047114;28;20126;-73
2021/03/25 00:32:39;;;;;;;16.15;8.43;;;9.40;59.80;;;;;;5042749;28;20111;-73
2021/03/25 00:35:09;;;;;;;15.07;7.35;;;9.30;59.90;;;;;;5037909;28;20060;-73
2021/03/25 00:37:36;;;;;;;15.43;8.38;;;9.40;60.00;;;;;;5042690;28;20053;-74
2021/03/25 00:40:05;;;;;;;16.33;7.85;;;9.30;60.10;;;;;;5049956;28;20380;-74
2021/03/25 00:42:32;;;;;;;18.58;8.07;;;9.40;60.00;;;;;;5040984;28;20049;-74
2021/03/25 00:44:58;;;;;;;15.68;8.43;;;9.30;60.20;;;;;;5036223;28;20155;-74
2021/03/25 00:47:25;;;;;;;15.80;8.88;;;9.30;60.40;;;;;;5045583;28;20432;-74
2021/03/25 00:49:51;;;;;;;19.27;8.38;;;9.30;60.90;;;;;;5041868;28;20044;-74
2021/03/25 00:52:18;;;;;;;23.52;8.75;;;9.30;60.90;;;;;;5046873;28;20049;-73
2021/03/25 00:54:45;;;;;;;16.02;8.45;;;9.30;60.90;;;;;;5047163;28;20081;-75
2021/03/25 00:57:11;;;;;;;14.85;8.05;;;9.30;60.90;;;;;;5043574;28;20044;-74
2021/03/25 00:59:37;;;;;;;24.05;8.43;;;9.30;61.10;;;;;;5047768;28;20041;-74
2021/03/25 01:02:04;;;;;;;19.00;8.80;;;9.30;61.00;;;;;;5047526;28;20053;-73
2021/03/25 01:04:31;;;;;;;17.98;8.23;;;9.30;61.10;;;;;;5043925;28;20058;-74
2021/03/25 01:06:57;;;;;;;20.10;9.07;;;9.30;62.00;;;;;;5048349;28;20191;-74
2021/03/25 01:09:26;;;;;;;13.38;7.35;;;9.30;61.40;;;;;;5046112;28;20126;-74
2021/03/25 01:11:53;;;;;;;17.88;8.40;;;9.20;61.50;;;;;;5043306;28;20104;-73
2021/03/25 01:14:23;;;;;;;18.13;8.07;;;9.30;61.50;;;;;;5042871;28;20099;-73
2021/03/25 01:16:51;;;;;;;17.05;8.02;;;9.20;61.50;;;;;;5044281;28;20094;-73
2021/03/25 01:19:30;;;;;;;16.05;7.53;;;9.10;61.90;;;;;;5041026;28;20464;-74
2021/03/25 01:21:58;;;;;;;12.82;7.50;;;9.00;62.30;;;;;;5042769;28;20061;-74
2021/03/25 01:24:25;;;;;;;14.90;7.97;;;9.10;62.40;;;;;;5044647;28;20044;-74
2021/03/25 01:26:52;;;;;;;14.57;8.23;;;9.10;62.40;;;;;;5041225;28;20092;-74
2021/03/25 01:29:19;;;;;;;17.23;8.77;;;8.90;62.70;;;;;;5046613;28;20491;-73
2021/03/25 01:31:46;;;;;;;17.20;8.55;;;8.90;63.00;;;;;;5039906;28;20480;-74
2021/03/25 01:34:15;;;;;;;23.80;8.15;;;8.90;63.20;;;;;;5042077;28;20053;-73
2021/03/25 01:36:44;;;;;;;20.85;7.85;;;8.90;63.30;;;;;;5044307;28;20041;-74
2021/03/25 01:39:11;;;;;;;15.52;8.02;;;8.80;63.60;;;;;;5037286;28;20088;-73
2021/03/25 01:41:38;;;;;;;17.88;8.48;;;8.80;63.60;;;;;;5050648;28;20073;-73
2021/03/25 01:44:05;;;;;;;18.42;8.13;;;8.90;63.40;;;;;;5046473;28;20470;-73
2021/03/25 01:46:34;;;;;;;18.10;8.40;;;8.90;63.30;;;;;;5042933;28;20472;-74
2021/03/25 01:49:08;;;;;;;19.23;8.50;;;9.00;63.30;;;;;;5042292;28;20068;-73
2021/03/25 01:51:50;;;;;;;18.58;8.48;;;8.80;63.80;;;;;;5038250;28;20453;-74
2021/03/25 01:54:47;;;;;;;22.85;9.05;;;8.90;63.80;;;;;;5047823;28;20473;-74
2021/03/25 01:57:47;;;;;;;18.70;8.50;;;8.90;63.60;;;;;;5042739;28;20500;-74
2021/03/25 02:00:42;;;;;;;15.02;8.43;;;8.80;64.60;;;;;;5073967;28;20449;-74
2021/03/25 02:03:30;;;;;;;13.70;7.47;;;8.80;63.90;;;;;;5042077;28;20081;-74
2021/03/25 02:06:32;;;;;;;14.32;8.32;;;8.80;63.90;;;;;;5049066;28;20049;-73
2021/03/25 02:09:12;;;;;;;16.25;8.82;;;8.60;64.80;;;;;;5046684;28;20049;-72
2021/03/25 02:12:17;;;;;;;16.85;8.43;;;8.70;64.60;;;;;;5046204;28;20041;-73
2021/03/25 02:15:07;;;;;;;19.15;8.13;;;8.70;64.50;;;;;;5042271;28;20053;-75
2021/03/25 02:17:42;;;;;;;;;;;8.70;65.00;;;;;;5050797;28;20097;-73
2021/03/25 02:20:41;;;;;;;17.70;8.00;;;8.70;64.70;;;;;;5038832;28;20007;-73
2021/03/25 02:23:39;;;;;;;21.80;8.60;;;8.70;64.80;;;;;;5041845;28;20045;-73
2021/03/25 02:26:10;;;;;;;18.55;8.95;;;8.60;64.90;;;;;;5042679;28;20046;-74
2021/03/25 02:29:04;;;;;;;17.40;8.23;;;8.60;65.30;;;;;;5044598;28;20041;-73
2021/03/25 02:31:35;;;;;;;15.60;8.00;;;8.60;65.60;;;;;;5044571;28;20053;-73
2021/03/25 02:34:07;;;;;;;16.33;8.82;;;8.50;65.50;;;;;;5039161;28;20060;-73
2021/03/25 02:36:41;;;;;;;17.50;8.77;;;8.40;65.70;;;;;;5046309;28;20459;-73
2021/03/25 02:39:16;;;;;;;18.00;8.45;;;8.40;65.80;;;;;;5035043;28;21117;-73
2021/03/25 02:41:56;;;;;;;19.33;9.35;;;8.30;66.20;;;;;;5046640;28;20044;-74
2021/03/25 02:44:31;;;;;;;18.17;8.05;;;8.00;67.00;;;;;;5040002;28;20083;-74
2021/03/25 02:47:08;;;;;;;16.27;8.18;;;8.00;67.10;;;;;;5054963;28;20095;-73
2021/03/25 02:49:48;;;;;;;15.60;8.00;;;8.00;67.10;;;;;;5048981;28;20480;-74
2021/03/25 02:52:34;;;;;;;15.50;8.10;;;8.00;67.10;;;;;;5040654;28;20114;-74
2021/03/25 02:55:04;;;;;;;16.42;7.75;;;8.10;67.00;;;;;;5052099;28;20038;-74
2021/03/25 02:57:54;;;;;;;17.17;7.63;;;8.10;66.80;;;;;;5049107;28;20118;-73
2021/03/25 03:00:28;;;;;;;19.08;8.90;;;8.20;66.50;;;;;;5042330;28;20053;-73
2021/03/25 03:03:14;;;;;;;14.23;8.60;;;8.20;66.50;;;;;;5068847;28;20044;-73
2021/03/25 03:05:43;;;;;;;17.98;9.77;;;8.20;66.00;;;;;;5048402;28;20529;-73
2021/03/25 03:08:17;;;;;;;23.63;9.77;;;8.20;66.20;;;;;;5045921;28;20060;-73
2021/03/25 03:10:53;;;;;;;18.50;10.40;;;8.10;66.30;;;;;;5036958;28;20072;-74
2021/03/25 03:13:27;;;;;;;21.60;10.43;;;8.10;66.40;;;;;;5044617;28;20099;-74
2021/03/25 03:16:07;;;;;;;20.52;9.93;;;8.20;66.30;;;;;;5042030;28;20134;-74
2021/03/25 03:18:44;;;;;;;19.52;9.38;;;8.20;66.80;;;;;;5048673;28;20076;-74
2021/03/25 03:21:29;;;;;;;17.65;8.75;;;8.20;66.00;;;;;;5060863;28;20516;-74
2021/03/25 03:23:55;;;;;;;17.98;9.32;;;8.30;65.80;;;;;;5039191;28;20048;-75
2021/03/25 03:26:31;;;;;;;18.33;9.73;;;8.20;66.10;;;;;;5037621;28;20067;-74
2021/03/25 03:29:05;;;;;;;16.10;9.07;;;8.30;65.80;;;;;;5040040;28;20056;-74
2021/03/25 03:31:37;;;;;;;23.40;8.95;;;8.30;65.60;;;;;;5042443;28;20049;-74
2021/03/25 03:34:08;;;;;;;17.92;8.73;;;8.20;65.60;;;;;;5049769;28;20077;-74
2021/03/25 03:36:37;;;;;;;18.05;8.57;;;8.30;65.90;;;;;;5044945;28;20049;-74
2021/03/25 03:39:08;;;;;;;18.48;9.02;;;8.20;66.10;;;;;;5041198;28;20488;-74
2021/03/25 03:41:45;;;;;;;17.95;8.77;;;8.10;66.20;;;;;;5046816;28;20107;-74
2021/03/25 03:44:16;;;;;;;20.48;8.48;;;8.10;66.40;;;;;;5040761;28;20394;-74
2021/03/25 03:46:45;;;;;;;18.55;9.30;;;8.10;66.90;;;;;;5045028;28;20144;-74
2021/03/25 03:49:20;;;;;;;18.13;8.83;;;8.20;66.50;;;;;;5045354;28;20053;-74
2021/03/25 03:52:04;;;;;;;16.73;9.13;;;8.10;66.40;;;;;;5042837;28;20081;-74
2021/03/25 03:54:31;;;;;;;16.10;8.75;;;8.20;66.40;;;;;;5042578;28;20041;-73
2021/03/25 03:57:22;;;;;;;19.55;8.73;;;8.10;66.90;;;;;;5035309;28;20531;-73
2021/03/25 04:00:12;;;;;;;17.25;9.30;;;8.20;66.40;;;;;;5040345;28;20098;-74
2021/03/25 04:02:42;;;;;;;;;;;8.20;66.60;;;;;;5041173;28;20081;-74
2021/03/25 04:05:14;;;;;;;19.83;8.52;;;8.10;66.80;;;;;;5044736;28;20311;-74
2021/03/25 04:07:45;;;;;;;18.45;9.43;;;8.20;66.50;;;;;;5042138;28;20097;-74
2021/03/25 04:10:23;;;;;;;16.75;9.40;;;8.10;67.00;;;;;;5043859;28;20088;-75
2021/03/25 04:12:58;;;;;;;16.95;9.35;;;8.10;67.10;;;;;;5046998;28;20049;-73
2021/03/25 04:15:27;;;;;;;20.08;10.07;;;8.00;67.70;;;;;;5040431;28;20631;-74
2021/03/25 04:18:10;;;;;;;19.70;9.93;;;8.00;66.80;;;;;;5043849;28;20061;-74
2021/03/25 04:20:44;;;;;;;20.77;10.65;;;8.00;67.00;;;;;;5035223;28;20041;-74
2021/03/25 04:23:14;;;;;;;20.70;10.35;;;8.00;67.00;;;;;;5051577;28;20408;-75
2021/03/25 04:25:57;;;;;;;19.15;9.75;;;8.00;67.50;;;;;;5042439;28;20488;-75
2021/03/25 04:28:31;;;;;;;19.98;9.90;;;7.80;67.90;;;;;;5040602;28;20045;-75
2021/03/25 04:30:58;;;;;;;18.63;9.52;;;8.00;67.80;;;;;;5039684;28;20099;-76
2021/03/25 04:33:26;;;;;;;19.15;9.55;;;7.80;67.60;;;;;;5045819;28;20439;-74
2021/03/25 04:35:54;;;;;;;20.00;9.57;;;7.70;68.50;;;;;;5036619;28;20156;-74
2021/03/25 04:38:31;;;;;;;20.42;9.93;;;7.80;68.60;;;;;;5045310;28;21542;-74
2021/03/25 04:40:58;;;;;;;18.67;8.88;;;7.80;68.50;;;;;;5037549;28;20067;-74
2021/03/25 04:43:39;;;;;;;16.98;8.73;;;7.60;69.20;;;;;;5035182;28;20467;-74
2021/03/25 04:46:26;;;;;;;18.83;9.15;;;7.50;69.60;;;;;;5036369;28;20427;-73
2021/03/25 04:48:56;;;;;;;15.73;9.18;;;7.60;69.70;;;;;;5042495;28;20045;-73
2021/03/25 04:51:25;;;;;;;15.48;8.60;;;7.80;69.20;;;;;;5042642;28;20202;-73
2021/03/25 04:54:07;;;;;;;19.00;9.40;;;7.70;69.30;;;;;;5040164;28;20436;-73
2021/03/25 04:56:34;;;;;;;22.27;8.65;;;7.50;69.60;;;;;;5041856;28;20052;-73
2021/03/25 04:59:01;;;;;;;19.67;9.02;;;7.50;70.40;;;;;;5045892;28;20122;-73
2021/03/25 05:01:30;;;;;;;19.73;9.07;;;7.60;70.20;;;;;;5041295;28;20053;-74
2021/03/25 05:04:04;;;;;;;18.17;9.18;;;7.60;70.10;;;;;;5046566;28;20114;-74
2021/03/25 05:06:58;;;;;;;17.70;8.13;;;7.60;70.50;;;;;;5034793;28;20045;-74
2021/03/25 05:09:26;;;;;;;14.98;7.80;;;7.60;70.20;;;;;;5041961;28;20042;-74
2021/03/25 05:11:54;;;;;;;14.48;7.68;;;7.50;70.70;;;;;;5042668;28;20099;-74
2021/03/25 05:14:27;;;;;;;17.00;8.23;;;7.40;71.20;;;;;;5041457;28;20049;-73
2021/03/25 05:17:24;;;;;;;16.77;8.38;;;7.40;71.20;;;;;;5037740;28;20069;-74
2021/03/25 05:20:31;;;;;;;16.40;8.93;;;7.50;71.20;;;;;;5042338;28;20066;-74
2021/03/25 05:23:25;;;;;;;16.17;9.07;;;7.50;71.10;;;;;;5010153;28;20076;-74
2021/03/25 05:26:11;;;;;;;16.30;8.48;;;7.60;70.90;;;;;;5032810;28;20129;-73
2021/03/25 05:28:54;;;;;;;17.75;8.80;;;7.50;71.20;;;;;;5042308;28;20041;-74
2021/03/25 05:31:21;;;;;;;15.40;8.18;;;7.60;70.80;;;;;;5039588;28;20056;-74
2021/03/25 05:33:51;;;;;;;20.10;8.48;;;7.70;70.90;;;;;;5038985;28;20041;-75
2021/03/25 05:36:19;;;;;;;17.85;8.40;;;7.70;70.50;;;;;;5041491;28;20049;-73
2021/03/25 05:38:46;;;;;;;14.02;7.75;;;7.60;70.70;;;;;;5040757;28;20084;-74
2021/03/25 05:41:34;;;;;;;17.95;8.32;;;7.50;71.30;;;;;;5044498;28;20360;-74
2021/03/25 05:44:30;;;;;;;20.67;9.07;;;7.60;71.20;;;;;;5039043;28;20168;-74
2021/03/25 05:47:15;;;;;;;15.05;7.15;;;7.70;70.90;;;;;;5042178;28;20132;-74
2021/03/25 05:50:14;;;;;;;18.00;8.82;;;7.90;70.00;;;;;;5044643;28;20045;-73
2021/03/25 05:52:47;;;;;;;18.73;8.23;;;7.80;70.10;;;;;;5046354;28;20049;-74
2021/03/25 05:55:32;;;;;;;16.27;8.43;;;7.80;70.40;;;;;;5041960;28;20053;-73
2021/03/25 05:58:31;;;;;;;18.63;8.73;;;8.00;69.50;;;;;;5044806;28;20052;-74
2021/03/25 06:01:16;;;;;;;19.17;9.00;;;8.20;69.30;;;;;;5006317;28;20058;-74
2021/03/25 06:03:56;;;;;;;16.30;7.80;;;8.30;68.80;;;;;;5078218;28;20404;-74
2021/03/25 06:06:39;;;;;;;16.77;8.90;;;8.30;68.10;;;;;;5043779;28;20073;-74
2021/03/25 06:09:16;;;;;;;16.50;8.60;;;8.60;68.10;;;;;;5042010;28;20481;-73
2021/03/25 06:11:58;;;;;;;18.20;8.90;;;8.70;67.40;;;;;;5037086;28;20465;-73
2021/03/25 06:15:09;;;;;;;15.38;7.85;;;8.80;66.80;;;;;;5039136;28;20134;-74
2021/03/25 06:17:55;;;;;;;18.27;8.25;;;8.70;66.60;;;;;;5045289;28;20485;-74
2021/03/25 06:21:06;;;;;;;14.68;7.28;;;8.80;66.80;;;;;;5044212;28;20043;-73
2021/03/25 06:23:46;;;;;;;13.75;6.82;;;8.80;66.70;;;;;;5045328;28;20068;-73
2021/03/25 06:26:55;;;;;;;16.10;7.78;;;8.50;66.90;;;;;;5047168;28;20080;-73
2021/03/25 06:29:28;;;;;;;11.57;6.80;;;8.60;67.20;;;;;;5024658;28;20102;-72
2021/03/25 06:32:16;;;;;;;13.30;7.85;;;8.70;66.90;;;;;;5039296;28;20440;-73
2021/03/25 06:35:03;;;;;;;14.02;7.57;;;8.70;66.50;;;;;;5047396;28;20049;-74
2021/03/25 06:37:55;;;;;;;14.32;7.63;;;8.90;66.10;;;;;;5042555;28;20127;-74
2021/03/25 06:40:29;;;;;;;14.82;6.90;;;8.80;66.20;;;;;;5046591;28;20099;-73
2021/03/25 06:43:21;;;;;;;13.82;7.05;;;9.10;66.10;;;;;;5044365;28;20080;-73
2021/03/25 06:45:55;;;;;;;15.23;7.35;;;9.20;64.70;;;;;;5030614;28;20049;-73
2021/03/25 06:48:54;;;;;;;14.02;7.32;;;9.20;64.90;;;;;;5040483;28;20040;-72
2021/03/25 06:51:24;;;;;;;15.15;6.85;;;9.20;64.50;;;;;;5034353;28;20089;-72
2021/03/25 06:54:09;;;;;;;15.02;7.90;;;9.20;65.10;;;;;;5048497;28;20045;-72
2021/03/25 06:56:45;;;;;;;14.10;7.00;;;9.30;64.50;;;;;;5041364;28;20117;-73
2021/03/25 06:59:18;;;;;;;14.30;7.25;;;9.40;64.10;;;;;;5042745;28;20053;-73
2021/03/25 07:01:50;;;;;;;12.75;7.20;;;9.30;64.00;;;;;;5039351;28;20127;-72
2021/03/25 07:04:29;;;;;;;17.40;7.97;;;9.30;64.70;;;;;;5045099;28;20057;-72
2021/03/25 07:07:05;;;;;;;14.93;6.63;;;9.60;64.40;;;;;;5045587;28;20089;-73
2021/03/25 07:09:35;;;;;;;13.30;7.13;;;9.80;62.80;;;;;;5048222;28;20059;-73
2021/03/25 07:12:04;;;;;;;13.63;7.07;;;9.90;62.70;;;;;;5046739;28;20055;-73
2021/03/25 07:14:40;;;;;;;34.95;8.75;;;10.20;60.80;;;;;;5049192;28;20533;-73
2021/03/25 07:17:09;;;;;;;22.77;7.70;;;10.50;60.00;;;;;;5047308;28;20085;-73
2021/03/25 07:19:38;;;;;;;23.50;7.10;;;10.60;59.90;;;;;;5046618;28;20052;-73
2021/03/25 07:22:17;;;;;;;14.40;6.88;;;10.50;59.30;;;;;;5046003;28;20170;-73
2021/03/25 07:24:44;;;;;;;13.23;7.70;;;10.70;59.10;;;;;;5045284;28;20854;-73
2021/03/25 07:27:25;;;;;;;17.25;7.38;;;10.40;59.20;;;;;;5051438;28;20125;-73
2021/03/25 07:30:04;;;;;;;15.35;8.00;;;10.60;59.50;;;;;;5047949;28;20107;-74
2021/03/25 07:32:45;;;;;;;76.53;10.60;;;10.90;58.80;;;;;;5048227;28;20044;-74
2021/03/25 07:35:15;;;;;;;18.55;7.55;;;10.40;59.50;;;;;;5048650;28;20080;-74
2021/03/25 07:37:43;;;;;;;19.77;7.28;;;10.20;59.60;;;;;;5046057;28;20084;-73
2021/03/25 07:40:36;;;;;;;14.18;7.05;;;10.00;60.20;;;;;;5045905;28;20053;-73
2021/03/25 07:43:24;;;;;;;14.43;7.93;;;9.90;61.70;;;;;;5043805;28;20045;-73
2021/03/25 07:46:16;;;;;;;15.07;8.30;;;10.30;59.90;;;;;;5043830;28;20109;-73
2021/03/25 07:48:56;;;;;;;13.25;7.40;;;10.80;59.90;;;;;;5047164;28;20114;-73
2021/03/25 07:51:23;;;;;;;14.32;7.88;;;11.00;59.50;;;;;;5049869;28;20159;-75
2021/03/25 07:54:08;;;;;;;12.77;7.70;;;11.30;58.60;;;;;;5044804;28;20909;-73
2021/03/25 07:56:35;;;;;;;14.60;7.63;;;11.20;57.90;;;;;;5048470;28;20116;-73
2021/03/25 07:59:04;;;;;;;15.20;7.90;;;12.00;57.30;;;;;;5045576;28;20507;-73
2021/03/25 08:01:32;;;;;;;14.63;7.10;;;11.80;57.30;;;;;;5046253;28;20057;-73
2021/03/25 08:03:59;;;;;;;13.10;7.68;;;12.30;56.50;;;;;;5048213;28;20096;-74
2021/03/25 08:06:37;;;;;;;16.08;7.88;;;12.70;55.40;;;;;;5047125;28;20518;-72
2021/03/25 08:09:11;;;;;;;14.80;7.32;;;12.40;55.50;;;;;;5046876;28;20084;-73
2021/03/25 08:12:02;;;;;;;16.77;8.27;;;12.70;55.40;;;;;;5045817;28;20404;-73
2021/03/25 08:14:32;;;;;;;12.90;7.88;;;12.90;54.70;;;;;;5046878;28;20052;-74
2021/03/25 08:17:27;;;;;;;15.25;8.23;;;12.50;54.60;;;;;;5046539;28;20122;-73
2021/03/25 08:20:24;;;;;;;12.35;7.32;;;12.30;56.40;;;;;;5043039;28;20057;-73
2021/03/25 08:23:15;;;;;;;15.25;7.88;;;12.10;55.50;;;;;;5030017;28;20102;-73
2021/03/25 08:25:50;;;;;;;14.18;8.02;;;11.80;57.10;;;;;;5044325;28;20419;-73
2021/03/25 08:28:35;;;;;;;15.18;8.15;;;12.10;56.90;;;;;;5049341;28;20692;-73
2021/03/25 08:31:10;;;;;;;13.93;7.00;;;12.90;55.80;;;;;;5045233;28;20423;-73
2021/03/25 08:33:47;;;;;;;18.08;7.28;;;13.30;55.00;;;;;;5046490;28;20098;-74
2021/03/25 08:36:38;;;;;;;12.40;6.95;;;13.90;53.20;;;;;;5049799;28;20052;-73
2021/03/25 08:39:36;;;;;;;12.52;6.97;;;14.10;53.20;;;;;;5045940;28;20388;-73
2021/03/25 08:42:08;;;;;;;12.15;7.85;;;14.80;52.30;;;;;;5046274;28;20143;-73
2021/03/25 08:44:46;;;;;;;12.63;7.70;;;14.50;51.70;;;;;;5046945;28;20416;-75
2021/03/25 08:48:06;;;;;;;15.57;7.43;;;14.70;51.40;;;;;;5044870;28;20448;-75
2021/03/25 08:50:50;;;;;;;14.70;7.43;;;15.00;51.40;;;;;;5041475;28;20078;-75
2021/03/25 08:53:37;;;;;;;13.88;7.88;;;14.70;51.00;;;;;;5044410;28;20052;-75
2021/03/25 08:56:34;;;;;;;13.35;7.10;;;14.30;52.10;;;;;;5051019;28;20053;-75
2021/03/25 08:59:16;;;;;;;16.23;7.95;;;14.00;52.50;;;;;;5047216;28;20406;-75
2021/03/25 09:02:03;;;;;;;14.27;7.50;;;14.40;53.20;;;;;;5044538;28;20143;-75
2021/03/25 09:04:37;;;;;;;13.77;7.22;;;14.40;51.80;;;;;;5046789;28;20049;-75
2021/03/25 09:07:05;;;;;;;19.20;8.00;;;14.80;51.50;;;;;;5045482;28;20517;-75
2021/03/25 09:09:49;;;;;;;14.13;7.25;;;15.40;50.40;;;;;;5044257;28;20045;-75
2021/03/25 09:12:27;;;;;;;16.73;7.03;;;14.90;50.50;;;;;;5046595;28;20076;-75
2021/03/25 09:14:56;;;;;;;12.50;7.15;;;14.20;51.40;;;;;;5044318;28;20126;-75
2021/03/25 09:17:26;;;;;;;15.88;7.32;;;14.20;52.20;;;;;;5036086;28;20160;-74
2021/03/25 09:19:56;;;;;;;13.98;7.18;;;14.50;52.20;;;;;;5043185;28;20141;-75
2021/03/25 09:22:48;;;;;;;12.68;7.15;;;14.00;52.50;;;;;;5040003;28;20191;-75
2021/03/25 09:25:26;;;;;;;14.88;6.97;;;14.60;52.50;;;;;;5042260;28;20084;-74
2021/03/25 09:27:57;;;;;;;12.30;7.15;;;15.30;51.30;;;;;;5046550;28;20052;-74
2021/03/25 09:30:45;;;;;;;16.17;7.40;;;16.20;49.70;;;;;;5036842;28;20136;-75
2021/03/25 09:33:44;;;;;;;16.83;7.22;;;15.90;49.20;;;;;;5032773;28;20080;-75
2021/03/25 09:36:16;;;;;;;12.65;7.00;;;16.80;48.50;;;;;;5046384;28;20073;-75
2021/03/25 09:38:51;;;;;;;11.50;6.50;;;15.40;49.80;;;;;;5037881;28;20057;-75
2021/03/25 09:41:37;;;;;;;16.25;7.43;;;15.30;49.90;;;;;;5028679;28;20096;-76
2021/03/25 09:44:19;;;;;;;15.38;7.05;;;15.80;49.30;;;;;;5040485;28;20149;-75
2021/03/25 09:46:45;;;;;;;11.27;7.30;;;17.30;48.30;;;;;;5041505;28;20507;-75
2021/03/25 09:49:15;;;;;;;13.48;6.90;;;18.40;46.40;;;;;;5041025;28;20040;-76
2021/03/25 09:51:42;;;;;;;10.88;6.88;;;19.00;45.00;;;;;;5040785;28;20146;-75
2021/03/25 09:54:25;;;;;;;12.50;7.45;;;17.90;45.50;;;;;;5044604;28;20045;-76
2021/03/25 09:57:25;;;;;;;15.35;7.40;;;17.30;46.50;;;;;;5041038;28;20115;-76
2021/03/25 09:59:54;;;;;;;14.82;7.35;;;16.60;47.80;;;;;;5044411;28;20178;-76
2021/03/25 10:02:39;;;;;;;14.27;7.35;;;16.40;48.30;;;;;;5048477;28;20408;-75
2021/03/25 10:05:16;;;;;;;16.38;7.70;;;17.80;46.60;;;;;;5036621;28;20053;-74
2021/03/25 10:07:43;;;;;;;16.63;8.07;;;18.60;45.80;;;;;;5045154;28;20055;-73
2021/03/25 10:10:48;;;;;;;14.02;7.53;;;18.80;44.70;;;;;;5048323;28;20488;-72
2021/03/25 10:13:21;;;;;;;15.52;8.05;;;17.80;45.40;;;;;;5047968;28;20070;-78
2021/03/25 10:15:49;;;;;;;18.33;7.40;;;18.20;45.00;;;;;;5051147;28;20052;-76
2021/03/25 10:18:26;;;;;;;18.30;7.78;;;16.70;47.40;;;;;;5047974;28;20137;-77
2021/03/25 10:20:59;;;;;;;15.82;7.60;;;16.30;49.20;;;;;;5046605;28;20060;-80
2021/03/25 10:23:28;;;;;;;15.63;7.03;;;17.10;47.80;;;;;;5048326;28;20147;-74
2021/03/25 10:26:25;;;;;;;14.90;7.32;;;17.00;49.30;;;;;;5046337;28;20182;-75
2021/03/25 10:29:02;;;;;;;14.07;7.40;;;16.90;48.60;;;;;;5042694;28;20049;-75
2021/03/25 10:31:52;;;;;;;17.63;8.25;;;17.40;47.60;;;;;;5050888;28;20044;-75
2021/03/25 10:34:23;;;;;;;19.08;8.18;;;17.30;47.50;;;;;;5048285;28;20101;-75
2021/03/25 10:37:23;;;;;;;16.65;7.88;;;17.50;47.80;;;;;;5049210;28;20061;-75
2021/03/25 10:39:50;;;;;;;15.30;7.85;;;17.70;47.30;;;;;;5046757;28;20110;-75
2021/03/25 10:42:36;;;;;;;19.52;8.05;;;18.00;46.80;;;;;;5050781;28;20048;-74
2021/03/25 10:45:25;;;;;;;22.48;8.38;;;19.20;45.20;;;;;;5048185;28;20181;-75
2021/03/25 10:48:23;;;;;;;19.65;8.65;;;19.00;44.60;;;;;;5074419;28;20468;-75
2021/03/25 10:51:00;;;;;;;18.08;8.68;;;17.70;46.20;;;;;;5044158;28;20044;-75
2021/03/25 10:53:37;;;;;;;16.45;9.18;;;17.30;47.20;;;;;;5048167;28;20180;-74
2021/03/25 10:56:26;;;;;;;20.60;8.50;;;17.30;47.50;;;;;;5047826;28;20389;-75
2021/03/25 10:59:22;;;;;;;18.53;9.13;;;17.30;47.60;;;;;;5051442;28;20499;-75
2021/03/25 11:01:52;;;;;;;27.58;8.82;;;17.90;46.80;;;;;;5033127;28;20049;-76
2021/03/25 11:04:21;;;;;;;18.05;8.93;;;18.20;46.20;;;;;;5033739;28;20057;-76
2021/03/25 11:06:48;;;;;;;24.38;9.30;;;18.20;46.30;;;;;;5039028;28;20049;-75
2021/03/25 11:09:28;;;;;;;21.30;9.57;;;18.40;45.70;;;;;;5042562;28;20087;-75
2021/03/25 11:12:20;;;;;;;22.20;10.32;;;18.40;46.20;;;;;;5030981;28;20045;-74
2021/03/25 11:14:56;;;;;;;23.10;10.40;;;18.40;45.50;;;;;;5031951;28;20169;-75
2021/03/25 11:17:30;;;;;;;31.75;12.68;;;18.40;45.80;;;;;;5039335;28;20057;-75
2021/03/25 11:20:06;;;;;;;24.73;11.60;;;19.50;45.00;;;;;;5041094;28;20100;-75
2021/03/25 11:22:34;;;;;;;23.02;10.10;;;19.70;44.00;;;;;;5038819;28;20053;-75
2021/03/25 11:25:07;;;;;;;22.63;10.38;;;19.20;45.00;;;;;;5033570;28;20056;-75
2021/03/25 11:27:33;;;;;;;23.90;11.07;;;19.00;44.40;;;;;;5027880;28;20041;-76
2021/03/25 11:30:23;;;;;;;23.50;10.57;;;18.90;44.60;;;;;;5024980;28;20049;-74
2021/03/25 11:32:50;;;;;;;21.98;10.23;;;18.90;44.90;;;;;;5030425;28;20055;-75
2021/03/25 11:35:19;;;;;;;21.38;10.73;;;19.20;44.20;;;;;;5027923;28;20049;-74
2021/03/25 11:37:46;;;;;;;24.30;10.68;;;19.10;44.30;;;;;;5029517;28;20045;-75
2021/03/25 11:40:14;;;;;;;19.33;9.75;;;19.50;43.60;;;;;;5026742;28;20057;-75
2021/03/25 11:42:46;;;;;;;24.55;11.27;;;19.30;44.10;;;;;;5028555;28;20077;-75
2021/03/25 11:45:32;;;;;;;26.38;10.68;;;19.30;43.40;;;;;;5027485;28;20110;-75
2021/03/25 11:47:59;;;;;;;22.40;10.98;;;19.30;43.60;;;;;;5030508;28;20059;-76
2021/03/25 11:50:26;;;;;;;25.00;10.88;;;19.90;43.10;;;;;;5024475;28;20461;-75
2021/03/25 11:52:58;;;;;;;24.55;11.23;;;20.40;42.30;;;;;;5028016;28;20076;-75
2021/03/25 11:55:42;;;;;;;26.75;12.18;;;19.70;43.20;;;;;;5028294;28;20071;-76
2021/03/25 11:58:21;;;;;;;24.13;11.45;;;19.80;43.60;;;;;;5020406;28;20123;-75
2021/03/25 12:01:01;;;;;;;29.52;12.65;;;19.70;43.70;;;;;;5027204;28;20072;-76
2021/03/25 12:03:48;;;;;;;;;;;19.10;44.00;;;;;;5036937;28;20073;-75
2021/03/25 12:06:31;;;;;;;28.08;11.52;;;19.10;44.70;;;;;;5030237;28;19928;-75
2021/03/25 12:09:17;;;;;;;27.58;11.30;;;19.10;44.50;;;;;;5031681;28;20827;-75
2021/03/25 12:11:47;;;;;;;35.13;13.13;;;19.10;44.40;;;;;;5035224;28;20062;-75
2021/03/25 12:14:16;;;;;;;24.35;11.73;;;18.90;44.70;;;;;;5030986;28;20683;-75
2021/03/25 12:16:54;;;;;;;24.60;12.45;;;18.80;45.00;;;;;;5029809;28;20061;-76
2021/03/25 12:19:41;;;;;;;25.77;11.95;;;18.90;45.10;;;;;;5026935;28;20059;-74
2021/03/25 12:22:16;;;;;;;29.90;12.90;;;19.00;44.70;;;;;;5025568;28;20041;-74
2021/03/25 12:24:43;;;;;;;26.20;13.27;;;19.00;44.90;;;;;;5024685;28;20062;-75
2021/03/25 12:27:16;;;;;;;36.63;12.98;;;18.80;45.10;;;;;;5029144;28;20179;-75
2021/03/25 12:29:42;;;;;;;31.15;13.52;;;18.90;45.10;;;;;;5028934;28;20051;-75
2021/03/25 12:32:13;;;;;;;32.00;13.23;;;19.50;44.50;;;;;;5028050;28;20091;-75
2021/03/25 12:35:02;;;;;;;27.20;12.20;;;19.90;43.90;;;;;;5031487;28;20053;-75
2021/03/25 12:37:29;;;;;;;28.92;13.27;;;20.10;43.50;;;;;;5032847;28;20053;-75
2021/03/25 12:39:57;;;;;;;35.78;12.75;;;20.90;42.80;;;;;;5031127;28;20056;-75
2021/03/25 12:42:23;;;;;;;26.88;12.63;;;21.30;42.70;;;;;;5031880;28;20192;-75
2021/03/25 12:44:54;;;;;;;22.85;11.75;;;21.40;41.50;;;;;;5031001;28;20512;-76
2021/03/25 12:47:20;;;;;;;27.02;13.27;;;21.70;41.20;;;;;;5035672;28;20045;-76
2021/03/25 12:50:00;;;;;;;30.20;12.85;;;21.00;41.80;;;;;;5037628;28;20052;-75
2021/03/25 12:52:28;;;;;;;28.10;12.88;;;21.20;41.80;;;;;;5040646;28;20057;-76
2021/03/25 12:54:55;;;;;;;28.77;13.20;;;21.20;42.30;;;;;;5038924;28;20057;-77
2021/03/25 12:57:26;;;;;;;27.35;12.23;;;21.20;41.20;;;;;;5037195;28;20053;-74
2021/03/25 12:59:57;;;;;;;28.13;12.20;;;21.30;41.50;;;;;;5034291;28;20145;-74
2021/03/25 13:02:25;;;;;;;26.63;12.10;;;20.90;41.20;;;;;;5036949;28;20053;-74
2021/03/25 13:04:52;;;;;;;22.02;11.48;;;21.20;40.50;;;;;;5036267;28;20311;-72
2021/03/25 13:07:18;;;;;;;25.90;12.20;;;21.30;40.20;;;;;;5032675;28;20053;-73
2021/03/25 13:09:45;;;;;;;24.85;12.20;;;21.00;40.30;;;;;;5034819;28;20045;-73
2021/03/25 13:12:19;;;;;;;27.15;11.77;;;21.20;40.00;;;;;;5033540;28;20053;-73
2021/03/25 13:14:45;;;;;;;23.50;11.00;;;21.50;39.60;;;;;;5029246;28;20149;-73
2021/03/25 13:17:12;;;;;;;26.38;11.00;;;21.50;39.00;;;;;;5026905;28;20152;-72
2021/03/25 13:19:53;;;;;;;23.95;10.27;;;21.30;38.40;;;;;;5028170;28;20061;-72
2021/03/25 13:22:19;;;;;;;18.08;9.23;;;21.50;37.80;;;;;;5030961;28;20174;-73
2021/03/25 13:24:47;;;;;;;19.77;9.70;;;21.50;36.90;;;;;;5033464;28;20480;-73
2021/03/25 13:27:14;;;;;;;15.73;8.07;;;21.60;36.30;;;;;;5036076;28;20147;-72
2021/03/25 13:29:41;;;;;;;18.70;9.27;;;21.40;36.20;;;;;;5032175;28;20077;-72